Lanvéoc-Poulmic Air Base

LFRL · Finistère, Bretagna, Francia

Storia di METAR LFRL · Lanvéoc-Poulmic Air Base

Di seguito sono riportati i METAR degli ultimi giorni. Seleziona un anno per sfogliare i METAR più vecchi, dall'anno 2007 in poi.

21 luglio 2024

Tempo Codice Tempo meteorologico Temp. Vista Base nuvolosa Vento METAR/SPECI
23:30
V
16 °C 10 km+ 5.000 ft 220° 220° 8 kt METAR LFRL 212130Z AUTO 22008KT 9999 FEW029 BKN050 OVC068 16/14 Q1019
23:00
M
16 °C 10 km+ 2.900 ft 220° 220° 8 kt METAR LFRL 212100Z AUTO 22008KT 9999 BKN029 BKN060 OVC076 16/14 Q1019
22:30
M
16 °C 10 km+ 3.000 ft 220° 220° 8 kt METAR LFRL 212030Z AUTO 22008KT 9999 BKN030 OVC036 16/14 Q1019
22:00
V
16 °C 10 km+ 4.700 ft 240° 240° 8 kt METAR LFRL 212000Z AUTO 24008KT 9999 FEW014 BKN047 OVC084 16/14 Q1019
21:30
M
17 °C 10 km+ 2.500 ft 240° 240° 10 kt METAR LFRL 211930Z AUTO 24010KT 9999 SCT017 BKN025 BKN030 17/13 Q1018
21:00
M
17 °C 10 km+ 1.900 ft 250° 250° 10 kt METAR LFRL 211900Z AUTO 25010KT 9999 BKN019 BKN032 BKN052 17/13 Q1018
20:30
V
17 °C 10 km+ 5.800 ft 250° 250° 10 kt METAR LFRL 211830Z AUTO 25010KT 9999 SCT018 SCT024 BKN058 17/13 Q1018
20:00
M
17 °C 10 km+ 1.900 ft 260° 260° 10 kt METAR LFRL 211800Z AUTO 26010KT 9999 BKN019 BKN025 BKN064 17/13 Q1018
19:30
M
17 °C 10 km+ 2.100 ft 280° 280° 12 kt METAR LFRL 211730Z AUTO 28012KT 9999 BKN021 BKN064 BKN082 17/12 Q1018
19:00
M
17 °C 10 km+ 2.200 ft 280° 280° 11 kt METAR LFRL 211700Z AUTO 28011KT 9999 BKN022 BKN027 BKN032 17/12 Q1018
18:30
M
17 °C 10 km+ 3.000 ft 290° 290° 13 kt METAR LFRL 211630Z AUTO 29013KT 9999 SCT020 SCT025 BKN030 17/13 Q1018
18:00
V
18 °C 10 km+ 3.700 ft 280° 280° 13 kt METAR LFRL 211600Z AUTO 28013KT 250V310 9999 SCT022 SCT027 BKN037 18/13 Q1018
17:30
V
18 °C 10 km+ 3.600 ft 290° 290° 13 kt METAR LFRL 211530Z AUTO 29013KT 250V310 9999 FEW020 OVC036 18/13 Q1018
17:00
V
18 °C 10 km+ 3.900 ft 280° 280° 15 kt METAR LFRL 211500Z AUTO 28015KT 9999 FEW020 OVC039 18/13 Q1018
16:30
V
19 °C 10 km+ 4.000 ft 270° 270° 15 kt METAR LFRL 211430Z AUTO 27015KT 9999 BKN040 19/13 Q1017
16:00
V
19 °C 10 km+ - 280° 280° 15 kt METAR LFRL 211400Z AUTO 28015KT 9999 FEW039 19/13 Q1017
15:30
V
19 °C 10 km+ - 280° 280° 14 kt METAR LFRL 211330Z AUTO 28014KT 9999 FEW035 19/12 Q1017
15:00
V
19 °C 10 km+ 13.000 ft 280° 280° 14 kt METAR LFRL 211300Z AUTO 28014KT 9999 FEW035 BKN130 19/12 Q1017
14:30
V
19 °C 10 km+ 3.300 ft 290° 290° 12 kt METAR LFRL 211230Z AUTO 29012KT 9999 BKN033 BKN110 BKN140 19/13 Q1017
14:00
V
19 °C 10 km+ 3.600 ft 290° 290° 13 kt METAR LFRL 211200Z AUTO 29013KT 9999 FEW029 BKN036 19/13 Q1016
13:30
V
18 °C 10 km+ 3.600 ft 290° 290° 13 kt METAR LFRL 211130Z AUTO 29013KT 9999 BKN036 18/12 Q1016
13:00
V
19 °C 10 km+ 3.400 ft 290° 290° 13 kt METAR LFRL 211100Z AUTO 29013KT 9999 BKN034 BKN150 19/13 Q1016
12:30
V
19 °C 10 km+ 3.600 ft 310° 310° 11 kt METAR LFRL 211030Z AUTO 31011KT 9999 BKN036 BKN160 BKN190 19/12 Q1016
12:00
V
19 °C 10 km+ - 320° 320° 11 kt METAR LFRL 211000Z AUTO 32011KT CAVOK 19/12 Q1015
11:30
V
19 °C 10 km+ - 320° 320° 10 kt METAR LFRL 210930Z AUTO 32010KT 290V350 CAVOK 19/12 Q1015
11:00
V
18 °C 10 km+ - 320° 320° 11 kt METAR LFRL 210900Z AUTO 32011KT CAVOK 18/13 Q1015
10:30
V
18 °C 10 km+ 4.200 ft 330° 330° 13 kt METAR LFRL 210830Z AUTO 33013KT 9999 FEW021 BKN042 18/13 Q1015
10:00
V
17 °C 10 km+ 4.200 ft 320° 320° 11 kt METAR LFRL 210800Z AUTO 32011KT 9999 FEW015 BKN042 17/15 Q1015
09:30
V
16 °C 10 km+ 4.100 ft 320° 320° 11 kt METAR LFRL 210730Z AUTO 32011KT 9999 FEW014 OVC041 16/14 Q1015
09:00
V
16 °C 10 km+ 3.300 ft 320° 320° 10 kt METAR LFRL 210700Z AUTO 32010KT 9999 FEW016 BKN033 OVC039 16/14 Q1014
08:30
V
16 °C 10 km+ 4.000 ft 330° 330° 9 kt METAR LFRL 210630Z AUTO 33009KT 9999 FEW011 SCT019 OVC040 16/14 Q1014
08:00
M
15 °C 10 km+ 1.000 ft 320° 320° 8 kt METAR LFRL 210600Z AUTO 32008KT 300V360 9999 BKN010 BKN015 BKN021 15/14 Q1013
07:30
M
15 °C 10 km+ 2.500 ft 330° 330° 10 kt METAR LFRL 210530Z AUTO 33010KT 9999 SCT013 BKN025 OVC031 15/14 Q1013
07:00
M
15 °C 10 km+ 3.000 ft 330° 330° 9 kt METAR LFRL 210500Z AUTO 33009KT 9999 SCT011 OVC030 15/14 Q1013
06:30
M
15 °C 10 km+ 1.200 ft 330° 330° 8 kt METAR LFRL 210430Z AUTO 33008KT 9999 BKN012 BKN020 OVC029 15/15 Q1012
06:00
M
15 °C 10 km+ 1.000 ft 320° 320° 10 kt METAR LFRL 210400Z AUTO 32010KT 9999 BKN010 BKN015 BKN023 15/15 Q1012
05:30
M
15 °C 10 km+ 1.100 ft 330° 330° 8 kt METAR LFRL 210330Z AUTO 33008KT 300V360 9999 BKN011 BKN016 OVC030 15/15 Q1012
05:00
M
15 °C 10 km+ 1.100 ft 330° 330° 9 kt METAR LFRL 210300Z AUTO 33009KT 9999 BKN011 BKN020 BKN025 15/15 Q1011
04:30
M
15 °C 10 km+ 1.000 ft 330° 330° 11 kt METAR LFRL 210230Z AUTO 33011KT 9999 BKN010 OVC030 15/15 Q1011
04:00
I
15 °C 10 km+ 900 ft 340° 340° 10 kt METAR LFRL 210200Z AUTO 34010KT 9999 OVC009 15/15 Q1011
03:30
I
15 °C 10 km+ 600 ft 340° 340° 14 kt METAR LFRL 210130Z AUTO 34014KT 9999 OVC006 15/15 Q1010
03:00
L
16 °C 9 km 400 ft 340° 340° 15 kt METAR LFRL 210100Z AUTO 34015KT 9000 OVC004 16/16 Q1010
02:30
L
16 °C 10 km+ 400 ft 330° 330° 14 kt METAR LFRL 210030Z AUTO 33014KT 9999 OVC004 16/16 Q1010
02:00
L
16 °C 4,2 km 200 ft 330° 330° 11 kt METAR LFRL 210000Z AUTO 33011KT 4200 -RA BR OVC002 16/16 Q1009
01:30
L
17 °C 4 km - 330° 330° 13 kt METAR LFRL 202330Z AUTO 33013KT 4000 -DZ BR VV/// 17/16 Q1009
01:00
L
17 °C 600 m - 330° 330° 3 kt METAR LFRL 202300Z AUTO 33003KT 0700 0600 R23/0800N R05/0800U FG VV/// 17/17 Q1008
00:30
L
17 °C 450 m - 320° 320° 4 kt METAR LFRL 202230Z AUTO 32004KT 0500 0450 R23/0600U R05/0600U FG VV/// 17/17 Q1008
00:00
L
17 °C 550 m - 320° 320° 5 kt METAR LFRL 202200Z AUTO 32005KT 1000 0550 R23/0700D R05/0800N BCFG VV/// 17/17 Q1008

20 luglio 2024

Tempo Codice Tempo meteorologico Temp. Vista Base nuvolosa Vento METAR/SPECI
23:30
L
17 °C 2,2 km - 320° 320° 3 kt METAR LFRL 202130Z AUTO 32003KT 2200 -RA BR VV/// 17/17 Q1008
23:00
L
17 °C 750 m - 170° 170° 2 kt METAR LFRL 202100Z AUTO 17002KT 0800 0750 R23/1000D R05/1000D FG VV/// 17/17 Q1008
22:30
L
17 °C 1,3 km - Var Var 3 kt METAR LFRL 202030Z AUTO VRB03KT 2100 1300 R23/1900D R05/1700D BR VV/// 17/17 Q1007
22:00
L
17 °C 4,1 km 200 ft 180° 180° 4 kt METAR LFRL 202000Z AUTO 18004KT 4100 BR OVC002/// ///TCU 17/17 Q1007
21:30
L
17 °C 10 km+ 300 ft 210° 210° 5 kt METAR LFRL 201930Z AUTO 21005KT 9999 OVC003/// ///TCU 17/17 Q1007
21:00
L
17 °C 10 km+ 400 ft 200° 200° 5 kt METAR LFRL 201900Z AUTO 20005KT 9999 OVC004 17/17 Q1006
20:30
L
18 °C 10 km+ 400 ft 200° 200° 6 kt METAR LFRL 201830Z AUTO 20006KT 9999 OVC004 18/17 Q1006
20:00
I
18 °C 10 km+ 500 ft 220° 220° 7 kt METAR LFRL 201800Z AUTO 22007KT 190V250 9999 OVC005 18/17 Q1006
19:30
I
18 °C 10 km+ 800 ft 210° 210° 11 kt METAR LFRL 201730Z AUTO 21011KT 9999 OVC008 18/17 Q1006
19:00
I
18 °C 10 km+ 800 ft 210° 210° 10 kt METAR LFRL 201700Z AUTO 21010KT 9999 BKN008 OVC044 18/17 Q1006
18:30
I
18 °C 10 km+ 600 ft 210° 210° 9 kt METAR LFRL 201630Z AUTO 21009KT 9999 OVC006 18/18 Q1006
18:00
L
18 °C 10 km+ 400 ft 210° 210° 9 kt METAR LFRL 201600Z AUTO 21009KT 9999 BKN004 OVC008 18/18 Q1006
17:30
I
18 °C 10 km+ 500 ft 210° 210° 11 kt METAR LFRL 201530Z AUTO 21011KT 9999 -RA BKN005/// BKN035/// OVC056/// //////TCU 18/18 Q1007
17:00
L
18 °C 10 km+ 400 ft 200° 200° 10 kt METAR LFRL 201500Z AUTO 20010KT 170V230 9999 OVC004/// //////CB 18/18 Q1007
16:30
I
18 °C 10 km+ 600 ft 210° 210° 13 kt METAR LFRL 201430Z AUTO 21013KT 9999 -RA BKN006/// BKN054/// BKN074/// ///CB 18/17 Q1006
16:00
L
18 °C 3 km 300 ft 210° 210° 10 kt METAR LFRL 201400Z AUTO 21010KT 170V230 3000 -RA BR OVC003/// ///CB 18/18 Q1007
15:30
L
18 °C 10 km+ 400 ft 200° 200° 10 kt METAR LFRL 201330Z AUTO 20010KT 9999 OVC004/// ///CB 18/18 Q1007
15:00
L
18 °C 10 km+ 300 ft 200° 200° 12 kt METAR LFRL 201300Z AUTO 20012KT 160V220 9999 BKN003/// BKN009/// OVC015/// ///CB 18/18 Q1007
14:30
L
18 °C 4,2 km 300 ft 200° 200° 13 kt METAR LFRL 201230Z AUTO 20013KT 4200 RA BR BKN003/// BKN007/// BKN027/// ///CB 18/18 Q1007
14:00
L
19 °C 4,4 km 300 ft 180° 180° 12 kt METAR LFRL 201200Z AUTO 18012KT 4400 BR OVC003/// ///CB 19/19 Q1007
13:30
L
19 °C 1,8 km 200 ft 190° 190° 12 kt METAR LFRL 201130Z AUTO 19012KT 4700 1800 -RADZ BR OVC002/// //////CB 19/18 Q1008
13:00
L
18 °C 10 km+ 300 ft 190° 190° 13 kt METAR LFRL 201100Z AUTO 19013KT 9999 OVC003 18/18 Q1008 TEMPO 2000 DZ BECMG 25006KT OVC005
12:30
I
19 °C 10 km+ 500 ft 190° 190° 11 kt METAR LFRL 201030Z AUTO 19011KT 9999 OVC005 19/18 Q1008 TEMPO 2000 DZ BECMG 25006KT
12:00
L
19 °C 10 km+ 400 ft 180° 180° 11 kt METAR LFRL 201000Z AUTO 18011KT 9999 OVC004 19/18 Q1008 TEMPO 2000 DZ BECMG 25006KT
11:30
L
19 °C 10 km+ 400 ft 180° 180° 10 kt METAR LFRL 200930Z AUTO 18010KT 9999 OVC004 19/18 Q1008 TEMPO 2000 DZ BECMG 25006KT
11:00
L
18 °C 3,7 km 200 ft 180° 180° 11 kt METAR LFRL 200900Z AUTO 18011KT 3700 DZ BR OVC002 18/18 Q1009 TEMPO 2000 DZ BECMG 25006KT
10:30
L
18 °C 2,7 km 200 ft 200° 200° 11 kt METAR LFRL 200830Z AUTO 20011KT 2700 DZ BR OVC002/// //////TCU 18/18 Q1009 TEMPO OVC002
10:00
L
18 °C 4,7 km 200 ft 190° 190° 12 kt METAR LFRL 200800Z AUTO 19012KT 140V210 4700 DZ BR OVC002 18/18 Q1009 TEMPO 2000 DZ
09:30
L
18 °C 2,1 km 200 ft 190° 190° 11 kt METAR LFRL 200730Z AUTO 19011KT 2100 -RA BR OVC002 18/18 Q1009 TEMPO DZ BECMG 25006KT
09:00
L
18 °C 2,8 km 200 ft 180° 180° 10 kt METAR LFRL 200700Z AUTO 18010KT 2800 -RA BR OVC002/// //////TCU 18/18 Q1010 TEMPO DZ OVC002 BECMG 25006KT
08:30
L
18 °C 9 km 200 ft 180° 180° 10 kt METAR LFRL 200630Z AUTO 18010KT 9000 OVC002 18/18 Q1010 TEMPO 2000 DZ BECMG 25006KT
08:00
L
18 °C 2,4 km - 180° 180° 10 kt METAR LFRL 200600Z AUTO 18010KT 2400 -RA BR VV/// 18/17 Q1010 TEMPO 0500 FG OVC002 BECMG 25006KT
07:30
L
18 °C 500 m - 180° 180° 10 kt METAR LFRL 200530Z AUTO 18010KT 0550 0500 R23/0650N R05/0650N FG VV/// 18/17 Q1010 TEMPO 2000 DZ OVC002 BECMG 25006KT
07:00
L
17 °C 1,1 km - 170° 170° 10 kt METAR LFRL 200500Z AUTO 17010KT 1200 1100 R23/1600D R05/1400D -RADZ BR VV/// 17/17 Q1010 TEMPO 0500 FG BECMG 25006KT
06:30
L
17 °C 4,3 km 200 ft 180° 180° 8 kt METAR LFRL 200430Z AUTO 18008KT 4300 BR OVC002 17/17 Q1011 TEMPO 0500 FG VV///
06:00
L
17 °C 8 km 200 ft 180° 180° 7 kt METAR LFRL 200400Z AUTO 18007KT 160V220 8000 OVC002 17/17 Q1011 TEMPO 0500 FG VV///
05:30
L
17 °C 10 km+ 300 ft 180° 180° 7 kt METAR LFRL 200330Z AUTO 18007KT 9999 OVC003 17/17 Q1012 TEMPO 0500 FG VV///
05:00
L
17 °C 10 km+ 300 ft 200° 200° 6 kt METAR LFRL 200300Z AUTO 20006KT 9999 OVC003 17/17 Q1012 TEMPO 0500 FG VV///
04:30
L
17 °C 10 km+ 300 ft 200° 200° 7 kt METAR LFRL 200230Z AUTO 20007KT 9999 OVC003 17/17 Q1012 TEMPO 0500 FG VV///
04:00
I
17 °C 10 km+ 500 ft 200° 200° 9 kt METAR LFRL 200200Z AUTO 20009KT 170V230 9999 OVC005 17/17 Q1013 TEMPO 0500 FG VV///
03:30
I
17 °C 10 km+ 500 ft 200° 200° 10 kt METAR LFRL 200130Z AUTO 20010KT 9999 OVC005 17/17 Q1013 TEMPO 0500 FG VV///
03:00
I
17 °C 10 km+ 500 ft 200° 200° 9 kt METAR LFRL 200100Z AUTO 20009KT 180V240 9999 BKN005 OVC009 17/17 Q1013 TEMPO 0500 FG VV///
02:30
L
18 °C 4,9 km 200 ft 210° 210° 9 kt METAR LFRL 200030Z AUTO 21009KT 4900 -DZ BR OVC002 18/17 Q1014 TEMPO 0500 FG VV///
02:00
L
18 °C 4,2 km 300 ft 200° 200° 8 kt METAR LFRL 200000Z AUTO 20008KT 4200 -RADZ BR BKN003 OVC007 18/17 Q1014 TEMPO 0500 FG VV///
01:30
I
17 °C 10 km+ 500 ft 200° 200° 7 kt METAR LFRL 192330Z AUTO 20007KT 9999 BKN005 BKN009 OVC015 17/17 Q1014 TEMPO 0500 FG VV///
01:00
L
18 °C 7 km 400 ft 200° 200° 7 kt METAR LFRL 192300Z AUTO 20007KT 170V230 7000 -RADZ BKN004 BKN008 OVC012 18/17 Q1015 TEMPO 0500 FG VV///
00:30
I
18 °C 5 km 800 ft 210° 210° 7 kt METAR LFRL 192230Z AUTO 21007KT 5000 BR BKN008 OVC012 18/17 Q1015 TEMPO 0500 FG VV///
00:00
M
18 °C 10 km+ 1.100 ft 210° 210° 6 kt METAR LFRL 192200Z AUTO 21006KT 9999 BKN011 OVC018 18/16 Q1015 TEMPO 0500 FG VV///

19 luglio 2024

Tempo Codice Tempo meteorologico Temp. Vista Base nuvolosa Vento METAR/SPECI
23:30
M
18 °C 10 km+ 1.600 ft 200° 200° 7 kt METAR LFRL 192130Z AUTO 20007KT 9999 OVC016 18/16 Q1016 TEMPO 0500 FG VV///
23:00
M
18 °C 10 km+ 1.400 ft 200° 200° 6 kt METAR LFRL 192100Z AUTO 20006KT 9999 OVC014 18/16 Q1016 TEMPO 0500 FG VV///
22:30
M
18 °C 10 km+ 1.300 ft 210° 210° 6 kt METAR LFRL 192030Z AUTO 21006KT 9999 OVC013 18/16 Q1016 TEMPO 0500 FG VV///
22:00
M
18 °C 10 km+ 1.300 ft 230° 230° 7 kt METAR LFRL 192000Z AUTO 23007KT 9999 OVC013 18/16 Q1016 TEMPO 2000 DZ OVC002
21:30
M
18 °C 10 km+ 1.400 ft 220° 220° 9 kt METAR LFRL 191930Z AUTO 22009KT 9999 OVC014 18/16 Q1016 TEMPO 2000 DZ OVC002
21:00
M
18 °C 10 km+ 1.400 ft 220° 220° 7 kt METAR LFRL 191900Z AUTO 22007KT 190V250 9999 OVC014 18/17 Q1016 BECMG OVC005
20:30
M
18 °C 10 km+ 1.200 ft 230° 230° 8 kt METAR LFRL 191830Z AUTO 23008KT 9999 SCT006 OVC012 18/17 Q1016 BECMG OVC005
20:00
L
18 °C 10 km+ 400 ft 240° 240° 9 kt METAR LFRL 191800Z AUTO 24009KT 9999 BKN004 OVC009 18/17 Q1016 BECMG OVC005
19:30
I
19 °C 10 km+ 700 ft 210° 210° 6 kt METAR LFRL 191730Z AUTO 21006KT 9999 BKN007 OVC011 19/17 Q1017 TEMPO BKN014
19:00
I
19 °C 10 km+ 800 ft 200° 200° 9 kt METAR LFRL 191700Z AUTO 20009KT 9999 OVC008 19/17 Q1017 BECMG BKN014
18:30
I
20 °C 10 km+ 800 ft 210° 210° 7 kt METAR LFRL 191630Z AUTO 21007KT 170V240 9999 OVC008 20/18 Q1017 BECMG BKN014
18:00
M
21 °C 10 km+ 1.200 ft 230° 230° 10 kt METAR LFRL 191600Z AUTO 23010KT 9999 BKN012 BKN022 21/17 Q1017 NOSIG
17:30
M
21 °C 10 km+ 1.300 ft 240° 240° 9 kt METAR LFRL 191530Z AUTO 24009KT 9999 BKN013 BKN027 21/17 Q1017 NOSIG
17:00
M
21 °C 10 km+ 1.300 ft 240° 240° 10 kt METAR LFRL 191500Z AUTO 24010KT 210V280 9999 BKN013 21/17 Q1018 TEMPO SCT021
16:30
V
21 °C 10 km+ - 250° 250° 11 kt METAR LFRL 191430Z AUTO 25011KT 9999 SCT015 SCT024 21/17 Q1018 BECMG BKN014
16:00
M
22 °C 10 km+ 2.500 ft 260° 260° 10 kt METAR LFRL 191400Z AUTO 26010KT 9999 SCT016 BKN025 22/17 Q1018 NOSIG
15:30
V
22 °C 10 km+ 4.700 ft 250° 250° 11 kt METAR LFRL 191330Z AUTO 25011KT 9999 FEW016 SCT027 BKN047 22/17 Q1018 NOSIG
15:00
V
21 °C 10 km+ - 240° 240° 9 kt METAR LFRL 191300Z AUTO 24009KT 9999 SCT027 21/16 Q1018 NOSIG
14:30
V
21 °C 10 km+ - 240° 240° 9 kt METAR LFRL 191230Z AUTO 24009KT 220V280 9999 FEW019 21/16 Q1018 NOSIG
14:00
V
21 °C 10 km+ - 250° 250° 9 kt METAR LFRL 191200Z AUTO 25009KT 9999 FEW020 21/17 Q1018 NOSIG
13:30
M
22 °C 10 km+ 2.100 ft 230° 230° 8 kt METAR LFRL 191130Z AUTO 23008KT 180V260 9999 BKN021/// 22/16 Q1018
Segnala modifiche